createdAt,value
2022-12-17T00:00:37.831Z,58.15
2022-12-17T00:03:58.224Z,58.15
2022-12-17T00:07:18.337Z,58.21
2022-12-17T00:10:38.172Z,58.21
2022-12-17T00:13:58.096Z,58.16
2022-12-17T00:17:18.226Z,58.30
2022-12-17T00:20:38.258Z,58.16
2022-12-17T00:23:58.536Z,58.19
2022-12-17T00:27:18.498Z,58.14
2022-12-17T00:30:38.530Z,58.16
2022-12-17T00:33:58.672Z,58.37
2022-12-17T00:37:18.537Z,58.41
2022-12-17T00:40:38.575Z,58.37
2022-12-17T00:43:58.381Z,58.29
2022-12-17T00:47:18.541Z,58.37
2022-12-17T00:50:38.713Z,58.30
2022-12-17T00:53:58.691Z,58.50
2022-12-17T00:57:18.713Z,58.32
2022-12-17T01:00:38.849Z,58.27
2022-12-17T01:03:58.980Z,58.30
2022-12-17T01:07:19.813Z,58.37
2022-12-17T01:10:41.261Z,58.40
2022-12-17T01:14:01.559Z,58.34
2022-12-17T01:17:22.079Z,58.32
2022-12-17T01:20:42.327Z,58.15
2022-12-17T01:24:03.880Z,58.29
2022-12-17T01:27:24.713Z,58.25
2022-12-17T01:30:44.854Z,58.31
2022-12-17T01:34:05.030Z,58.31
2022-12-17T01:37:25.247Z,58.40
2022-12-17T01:40:45.891Z,58.55
2022-12-17T01:44:05.855Z,58.48
2022-12-17T01:47:27.992Z,58.54
2022-12-17T01:50:53.170Z,58.61
2022-12-17T01:54:13.551Z,58.50
2022-12-17T01:57:33.855Z,58.53
2022-12-17T02:00:54.105Z,58.39
2022-12-17T02:04:14.249Z,58.55
2022-12-17T02:07:43.643Z,58.58
2022-12-17T02:11:29.444Z,58.56
2022-12-17T02:14:57.651Z,58.76
2022-12-17T02:18:23.808Z,58.63
2022-12-17T02:21:45.908Z,58.56
2022-12-17T02:25:19.379Z,58.62
2022-12-17T02:28:39.640Z,58.54
2022-12-17T02:32:03.029Z,58.72
2022-12-17T02:35:33.542Z,58.55
2022-12-17T02:38:53.747Z,58.56
2022-12-17T02:42:18.463Z,58.65
2022-12-17T02:45:39.387Z,58.68
2022-12-17T02:49:00.349Z,58.62
2022-12-17T02:52:23.490Z,58.70
2022-12-17T02:55:43.611Z,58.73
2022-12-17T02:59:03.820Z,58.59
2022-12-17T03:02:26.229Z,58.74
2022-12-17T03:05:46.615Z,58.61
2022-12-17T03:09:06.567Z,58.80
2022-12-17T03:12:26.398Z,58.84
2022-12-17T03:15:46.118Z,58.54
2022-12-17T03:19:08.785Z,58.88
2022-12-17T03:22:30.179Z,58.81
2022-12-17T03:25:50.046Z,58.83
2022-12-17T03:29:10.537Z,58.70
2022-12-17T03:32:30.352Z,58.82
2022-12-17T03:35:50.141Z,58.67
2022-12-17T03:39:10.085Z,58.71
2022-12-17T03:42:29.973Z,58.84
2022-12-17T03:45:50.217Z,58.67
2022-12-17T03:49:10.335Z,58.64
2022-12-17T03:52:30.425Z,58.65
2022-12-17T03:55:50.262Z,58.72
2022-12-17T03:59:10.116Z,58.56
2022-12-17T04:02:30.204Z,58.64
2022-12-17T04:05:50.223Z,58.60
2022-12-17T04:09:10.024Z,58.63
2022-12-17T04:12:29.936Z,58.74
2022-12-17T04:15:49.848Z,58.71
2022-12-17T04:19:10.107Z,58.94
2022-12-17T04:22:30.140Z,58.76
2022-12-17T04:25:49.841Z,58.67
2022-12-17T04:29:09.593Z,58.60
2022-12-17T04:32:34.894Z,58.68
2022-12-17T04:35:55.563Z,58.65
2022-12-17T04:39:15.361Z,58.77
2022-12-17T04:42:35.274Z,58.77
2022-12-17T04:45:56.622Z,58.84
2022-12-17T04:49:16.936Z,58.97
2022-12-17T04:52:36.749Z,58.70
2022-12-17T04:55:56.757Z,58.76
2022-12-17T04:59:16.815Z,58.77
2022-12-17T05:02:42.356Z,58.78
2022-12-17T05:06:02.903Z,58.91
2022-12-17T05:09:22.693Z,58.81
2022-12-17T05:12:42.567Z,58.81
2022-12-17T05:16:02.925Z,58.84
2022-12-17T05:19:23.063Z,58.70
2022-12-17T05:22:43.172Z,58.92
2022-12-17T05:26:02.950Z,58.78
2022-12-17T05:29:22.809Z,58.77
2022-12-17T05:32:42.590Z,58.91
2022-12-17T05:36:02.502Z,58.83
2022-12-17T05:39:22.458Z,58.95
2022-12-17T05:42:42.634Z,59.04
2022-12-17T05:46:03.758Z,58.86
2022-12-17T05:49:26.894Z,58.94
2022-12-17T05:52:46.736Z,58.87
2022-12-17T05:56:08.681Z,58.81
2022-12-17T05:59:28.587Z,58.82
2022-12-17T06:02:48.619Z,58.96
2022-12-17T06:06:13.443Z,58.99
2022-12-17T06:09:34.333Z,58.88
2022-12-17T06:12:54.087Z,58.86
2022-12-17T06:16:14.170Z,58.82
2022-12-17T06:19:34.449Z,58.80
2022-12-17T06:22:54.353Z,58.78
2022-12-17T06:26:15.578Z,58.89
2022-12-17T06:29:35.437Z,58.95
2022-12-17T06:33:15.044Z,58.71
2022-12-17T06:36:35.068Z,58.70
2022-12-17T06:39:54.909Z,58.73
2022-12-17T06:43:15.750Z,58.78
2022-12-17T06:46:35.674Z,58.67
2022-12-17T06:50:01.054Z,58.67
2022-12-17T06:53:24.652Z,58.58
2022-12-17T06:56:45.192Z,58.58
2022-12-17T07:00:05.130Z,58.68
2022-12-17T07:03:25.280Z,58.58
2022-12-17T07:06:45.488Z,58.48
2022-12-17T07:10:12.161Z,58.31
2022-12-17T07:13:34.076Z,58.33
2022-12-17T07:16:54.460Z,58.33
2022-12-17T07:20:14.343Z,58.24
2022-12-17T07:23:34.877Z,58.25
2022-12-17T07:26:55.271Z,58.28
2022-12-17T07:30:15.324Z,58.19
2022-12-17T07:33:35.531Z,58.24
2022-12-17T07:36:56.151Z,58.22
2022-12-17T07:40:15.970Z,58.20
2022-12-17T07:43:36.837Z,58.19
2022-12-17T07:46:57.196Z,58.16
2022-12-17T07:50:17.043Z,58.15
2022-12-17T07:53:37.400Z,58.27
2022-12-17T07:56:57.586Z,58.28
2022-12-17T08:00:17.483Z,58.28
2022-12-17T08:03:37.823Z,58.36
2022-12-17T08:07:02.770Z,58.26
2022-12-17T08:10:25.691Z,58.29
2022-12-17T08:13:45.874Z,58.35
2022-12-17T08:17:05.923Z,58.30
2022-12-17T08:20:26.576Z,58.40
2022-12-17T08:23:46.462Z,58.30
2022-12-17T08:27:06.360Z,58.36
2022-12-17T08:30:27.082Z,58.51
2022-12-17T08:33:47.246Z,58.23
2022-12-17T08:37:07.091Z,58.38
2022-12-17T08:40:27.739Z,58.38
2022-12-17T08:43:49.235Z,58.35
2022-12-17T08:47:09.150Z,58.28
2022-12-17T08:50:29.070Z,58.00
2022-12-17T08:53:49.321Z,58.03
2022-12-17T08:57:09.210Z,57.83
2022-12-17T09:00:29.608Z,57.68
2022-12-17T09:03:49.588Z,57.44
2022-12-17T09:07:09.755Z,57.40
2022-12-17T09:10:29.874Z,57.41
2022-12-17T09:13:50.128Z,57.31
2022-12-17T09:17:26.785Z,57.41
2022-12-17T09:20:47.251Z,57.48
2022-12-17T09:24:07.224Z,57.67
2022-12-17T09:27:27.621Z,57.82
2022-12-17T09:30:47.474Z,57.90
2022-12-17T09:34:07.604Z,58.10
2022-12-17T09:37:27.496Z,58.19
2022-12-17T09:40:48.878Z,58.25
2022-12-17T09:44:19.956Z,58.32
2022-12-17T09:48:00.730Z,58.25
2022-12-17T09:51:21.118Z,58.50
2022-12-17T09:54:59.280Z,58.44
2022-12-17T09:58:21.772Z,58.54
2022-12-17T10:01:45.632Z,58.57
2022-12-17T10:05:06.193Z,58.58
2022-12-17T10:08:29.819Z,58.65
2022-12-17T10:11:49.984Z,58.53
2022-12-17T10:15:10.058Z,58.42
2022-12-17T10:18:31.974Z,58.22
2022-12-17T10:21:52.945Z,58.30
2022-12-17T10:25:13.281Z,58.16
2022-12-17T10:28:40.298Z,58.01
2022-12-17T10:32:00.209Z,58.00
2022-12-17T10:35:53.792Z,57.88
2022-12-17T10:39:14.268Z,57.94
2022-12-17T10:42:49.325Z,57.81
2022-12-17T10:46:14.996Z,57.61
2022-12-17T10:49:43.331Z,57.63
2022-12-17T10:53:06.265Z,57.62
2022-12-17T10:56:40.814Z,57.72
2022-12-17T11:00:01.294Z,57.67
2022-12-17T11:03:22.862Z,57.49
2022-12-17T11:06:50.519Z,57.50
2022-12-17T11:10:15.768Z,57.36
2022-12-17T11:13:47.006Z,57.31
2022-12-17T11:17:13.394Z,56.95
2022-12-17T11:21:06.863Z,57.16
2022-12-17T11:24:35.423Z,57.31
2022-12-17T11:28:03.948Z,57.29
2022-12-17T11:31:36.189Z,57.50
2022-12-17T11:35:21.835Z,57.75
2022-12-17T11:38:53.263Z,57.76
2022-12-17T11:42:43.051Z,57.91
2022-12-17T11:46:26.361Z,58.08
2022-12-17T11:50:08.392Z,58.46
2022-12-17T11:53:44.362Z,58.63
2022-12-17T11:57:30.895Z,58.74
2022-12-17T12:01:05.887Z,58.93
2022-12-17T12:05:04.307Z,59.00
2022-12-17T12:08:30.356Z,59.32
2022-12-17T12:12:00.917Z,59.54
2022-12-17T12:16:04.850Z,59.46
2022-12-17T12:19:39.388Z,59.67
2022-12-17T12:23:05.525Z,59.71
2022-12-17T12:26:39.860Z,59.81
2022-12-17T12:30:30.136Z,59.76
2022-12-17T12:34:17.967Z,59.66
2022-12-17T12:37:39.265Z,59.68
2022-12-17T12:41:10.641Z,59.84
2022-12-17T12:45:02.260Z,59.67
2022-12-17T12:48:53.039Z,59.69
2022-12-17T12:52:15.243Z,59.56
2022-12-17T12:55:35.189Z,59.58
2022-12-17T12:58:55.597Z,59.87
2022-12-17T13:02:15.551Z,60.11
2022-12-17T13:05:35.328Z,60.47
2022-12-17T13:08:37.637Z,60.73
2022-12-17T13:11:39.414Z,60.86
2022-12-17T13:14:59.609Z,61.36
2022-12-17T13:18:19.175Z,61.33
2022-12-17T13:21:20.585Z,61.15
2022-12-17T13:24:27.176Z,61.22
2022-12-17T13:27:34.467Z,61.10
2022-12-17T13:30:37.811Z,60.89
2022-12-17T13:34:07.890Z,60.78
2022-12-17T13:37:23.817Z,60.87
2022-12-17T13:40:46.696Z,60.63
2022-12-17T13:43:52.248Z,60.72
2022-12-17T13:46:54.362Z,60.58
2022-12-17T13:50:32.202Z,60.55
2022-12-17T13:53:20.163Z,60.52
2022-12-17T13:56:24.004Z,60.46
2022-12-17T13:59:25.545Z,60.41
2022-12-17T14:02:35.075Z,60.35
2022-12-17T14:05:41.875Z,60.18
2022-12-17T14:08:43.986Z,60.31
2022-12-17T14:12:04.420Z,60.12
2022-12-17T14:15:12.152Z,60.14
2022-12-17T14:18:18.582Z,60.13
2022-12-17T14:21:21.555Z,60.16
2022-12-17T14:24:27.205Z,60.07
2022-12-17T14:27:34.906Z,59.97
2022-12-17T14:30:56.382Z,59.88
2022-12-17T14:34:11.682Z,59.85
2022-12-17T14:37:25.643Z,59.85
2022-12-17T14:40:27.297Z,59.80
2022-12-17T14:43:29.428Z,59.89
2022-12-17T14:46:33.020Z,59.71
2022-12-17T14:49:34.758Z,59.83
2022-12-17T14:52:52.992Z,59.59
2022-12-17T14:55:57.240Z,59.52
2022-12-17T14:58:58.783Z,59.38
2022-12-17T15:02:04.905Z,59.39
2022-12-17T15:05:07.378Z,59.40
2022-12-17T15:08:11.652Z,59.36
2022-12-17T15:11:18.526Z,59.42
2022-12-17T15:14:20.004Z,59.38
2022-12-17T15:17:21.878Z,59.25
2022-12-17T15:20:23.374Z,59.31
2022-12-17T15:23:25.209Z,59.24
2022-12-17T15:26:26.857Z,59.22
2022-12-17T15:29:29.381Z,59.22
2022-12-17T15:32:30.827Z,59.01
2022-12-17T15:35:32.582Z,58.93
2022-12-17T15:38:34.268Z,59.02
2022-12-17T15:41:54.583Z,58.83
2022-12-17T15:44:56.115Z,58.88
2022-12-17T15:47:57.843Z,56.51
2022-12-17T15:50:59.276Z,51.68
2022-12-17T15:54:00.763Z,49.13
2022-12-17T15:57:02.561Z,48.09
2022-12-17T16:00:04.602Z,49.84
2022-12-17T16:03:06.940Z,51.99
2022-12-17T16:06:08.632Z,53.06
2022-12-17T16:09:10.108Z,53.63
2022-12-17T16:12:11.565Z,54.08
2022-12-17T16:15:13.262Z,54.16
2022-12-17T16:18:16.634Z,54.40
2022-12-17T16:21:18.399Z,54.62
2022-12-17T16:24:19.873Z,54.49
2022-12-17T16:27:21.579Z,54.51
2022-12-17T16:30:23.027Z,54.40
2022-12-17T16:33:24.527Z,54.49
2022-12-17T16:36:26.102Z,54.70
2022-12-17T16:39:27.946Z,54.62
2022-12-17T16:42:29.430Z,54.83
2022-12-17T16:45:30.876Z,54.92
2022-12-17T16:48:38.799Z,54.84
2022-12-17T16:51:41.192Z,55.49
2022-12-17T16:54:42.706Z,55.56
2022-12-17T16:57:44.154Z,55.59
2022-12-17T17:00:46.327Z,55.80
2022-12-17T17:03:48.486Z,55.75
2022-12-17T17:06:53.147Z,55.94
2022-12-17T17:09:54.724Z,55.99
2022-12-17T17:12:56.915Z,56.04
2022-12-17T17:15:58.451Z,56.17
2022-12-17T17:19:01.067Z,56.25
2022-12-17T17:22:02.571Z,56.34
2022-12-17T17:25:05.033Z,56.38
2022-12-17T17:28:06.519Z,56.64
2022-12-17T17:31:11.277Z,56.77
2022-12-17T17:34:14.306Z,56.83
2022-12-17T17:37:16.009Z,57.01
2022-12-17T17:40:17.548Z,57.03
2022-12-17T17:43:19.144Z,57.05
2022-12-17T17:46:20.840Z,57.26
2022-12-17T17:49:22.406Z,57.19
2022-12-17T17:52:23.924Z,57.28
2022-12-17T17:55:25.480Z,57.31
2022-12-17T17:58:27.053Z,57.35
2022-12-17T18:01:37.711Z,57.46
2022-12-17T18:04:40.010Z,57.45
2022-12-17T18:07:41.566Z,57.34
2022-12-17T18:10:43.580Z,57.29
2022-12-17T18:13:57.232Z,57.15
2022-12-17T18:16:58.761Z,57.06
2022-12-17T18:20:00.313Z,57.16
2022-12-17T18:23:01.818Z,57.11
2022-12-17T18:26:09.101Z,56.89
2022-12-17T18:29:24.135Z,56.95
2022-12-17T18:32:25.684Z,56.87
2022-12-17T18:35:27.416Z,57.03
2022-12-17T18:38:28.989Z,56.74
2022-12-17T18:41:48.816Z,56.77
2022-12-17T18:44:50.319Z,56.74
2022-12-17T18:47:51.853Z,56.62
2022-12-17T18:50:53.636Z,56.65
2022-12-17T18:54:00.689Z,56.56
2022-12-17T18:57:02.742Z,56.53
2022-12-17T19:00:05.234Z,56.45
2022-12-17T19:03:07.718Z,56.29
2022-12-17T19:06:09.544Z,56.37
2022-12-17T19:09:27.830Z,56.25
2022-12-17T19:12:29.380Z,56.34
2022-12-17T19:15:30.858Z,56.14
2022-12-17T19:18:32.887Z,55.98
2022-12-17T19:21:34.524Z,56.10
2022-12-17T19:24:36.007Z,56.09
2022-12-17T19:27:38.049Z,56.01
2022-12-17T19:30:39.518Z,56.05
2022-12-17T19:33:41.573Z,56.07
2022-12-17T19:36:43.531Z,56.13
2022-12-17T19:39:45.094Z,56.07
2022-12-17T19:42:46.655Z,56.16
2022-12-17T19:45:48.379Z,56.22
2022-12-17T19:48:51.336Z,56.23
2022-12-17T19:51:53.116Z,56.44
2022-12-17T19:54:54.610Z,56.28
2022-12-17T19:57:56.568Z,56.41
2022-12-17T20:01:05.590Z,56.38
2022-12-17T20:04:07.439Z,56.60
2022-12-17T20:07:08.970Z,56.64
2022-12-17T20:10:10.475Z,56.77
2022-12-17T20:13:11.965Z,56.93
2022-12-17T20:16:13.560Z,57.05
2022-12-17T20:19:18.164Z,57.19
2022-12-17T20:22:19.640Z,57.39
2022-12-17T20:25:21.196Z,57.46
2022-12-17T20:28:22.655Z,57.76
2022-12-17T20:31:24.205Z,57.86
2022-12-17T20:34:25.869Z,57.90
2022-12-17T20:37:27.339Z,58.03
2022-12-17T20:40:28.848Z,57.87
2022-12-17T20:43:30.317Z,58.18
2022-12-17T20:46:32.377Z,58.24
2022-12-17T20:49:33.864Z,58.26
2022-12-17T20:52:35.347Z,58.32
2022-12-17T20:55:37.355Z,58.34
2022-12-17T20:58:40.506Z,58.30
2022-12-17T21:01:42.843Z,58.32
2022-12-17T21:04:44.426Z,58.34
2022-12-17T21:07:45.927Z,58.36
2022-12-17T21:10:47.391Z,58.29
2022-12-17T21:13:48.859Z,58.18
2022-12-17T21:16:50.414Z,58.23
2022-12-17T21:19:51.957Z,58.14
2022-12-17T21:22:53.414Z,58.10
2022-12-17T21:26:10.600Z,57.99
2022-12-17T21:29:12.547Z,58.28
2022-12-17T21:32:13.987Z,57.78
2022-12-17T21:35:15.842Z,57.82
2022-12-17T21:38:18.328Z,57.88
2022-12-17T21:41:23.023Z,57.84
2022-12-17T21:44:24.555Z,57.85
2022-12-17T21:47:26.831Z,57.83
2022-12-17T21:50:28.315Z,57.68
2022-12-17T21:53:29.762Z,57.68
2022-12-17T21:56:31.399Z,57.58
2022-12-17T21:59:32.858Z,57.61
2022-12-17T22:02:34.602Z,57.39
2022-12-17T22:05:37.475Z,57.39
2022-12-17T22:08:39.757Z,57.08
2022-12-17T22:11:41.951Z,57.26
2022-12-17T22:14:43.832Z,57.06
2022-12-17T22:17:45.265Z,56.88
2022-12-17T22:20:57.148Z,57.05
2022-12-17T22:23:58.602Z,57.25
2022-12-17T22:27:00.490Z,56.94
2022-12-17T22:30:20.359Z,57.08
2022-12-17T22:33:48.422Z,56.89
2022-12-17T22:38:58.193Z,56.98
2022-12-17T22:44:29.878Z,57.08
2022-12-17T22:44:33.707Z,56.97
2022-12-17T22:46:51.542Z,56.92
2022-12-17T22:49:53.021Z,56.86
2022-12-17T22:52:55.055Z,56.68
2022-12-17T22:56:12.645Z,56.88
2022-12-17T22:59:19.090Z,56.91
2022-12-17T23:02:20.664Z,57.08
2022-12-17T23:05:23.471Z,56.98
2022-12-17T23:08:24.923Z,56.97
2022-12-17T23:11:27.925Z,56.96
2022-12-17T23:14:29.423Z,56.93
2022-12-17T23:17:30.877Z,56.83
2022-12-17T23:20:34.653Z,56.92
2022-12-17T23:23:36.643Z,56.77
2022-12-17T23:26:39.757Z,56.98
2022-12-17T23:29:41.233Z,56.80
2022-12-17T23:32:43.350Z,56.86
2022-12-17T23:35:44.784Z,56.82
2022-12-17T23:38:47.819Z,56.80
2022-12-17T23:41:49.446Z,56.87
2022-12-17T23:44:50.928Z,56.97
2022-12-17T23:47:52.422Z,56.75
2022-12-17T23:50:53.858Z,56.70
2022-12-17T23:53:55.360Z,56.77
2022-12-17T23:56:56.887Z,56.70
2022-12-17T23:59:58.363Z,57.10
